sensor_id;sensor_type;location;lat;lon;timestamp;P1;durP1;ratioP1;P2;durP2;ratioP2
37517;SDS011;23366;52.498;13.446;2023-04-15T00:01:25;33.53;;;15.88;;
37517;SDS011;23366;52.498;13.446;2023-04-15T00:03:52;27.25;;;15.75;;
37517;SDS011;23366;52.498;13.446;2023-04-15T00:06:19;36.25;;;16.80;;
37517;SDS011;23366;52.498;13.446;2023-04-15T00:08:45;30.20;;;15.50;;
37517;SDS011;23366;52.498;13.446;2023-04-15T00:11:11;30.38;;;15.93;;
37517;SDS011;23366;52.498;13.446;2023-04-15T00:13:38;33.97;;;18.60;;
37517;SDS011;23366;52.498;13.446;2023-04-15T00:16:04;31.02;;;15.02;;
37517;SDS011;23366;52.498;13.446;2023-04-15T00:18:30;39.75;;;17.38;;
37517;SDS011;23366;52.498;13.446;2023-04-15T00:20:56;34.95;;;16.08;;
37517;SDS011;23366;52.498;13.446;2023-04-15T00:23:23;28.95;;;15.70;;
37517;SDS011;23366;52.498;13.446;2023-04-15T00:25:48;29.50;;;17.17;;
37517;SDS011;23366;52.498;13.446;2023-04-15T00:28:15;32.15;;;17.13;;
37517;SDS011;23366;52.498;13.446;2023-04-15T00:30:40;37.00;;;17.90;;
37517;SDS011;23366;52.498;13.446;2023-04-15T00:33:06;34.95;;;17.42;;
37517;SDS011;23366;52.498;13.446;2023-04-15T00:35:32;31.83;;;16.70;;
37517;SDS011;23366;52.498;13.446;2023-04-15T00:37:58;39.55;;;18.38;;
37517;SDS011;23366;52.498;13.446;2023-04-15T00:40:23;37.25;;;16.33;;
37517;SDS011;23366;52.498;13.446;2023-04-15T00:42:50;37.28;;;17.52;;
37517;SDS011;23366;52.498;13.446;2023-04-15T00:45:16;33.67;;;17.48;;
37517;SDS011;23366;52.498;13.446;2023-04-15T00:47:42;43.13;;;19.67;;
37517;SDS011;23366;52.498;13.446;2023-04-15T00:50:08;37.17;;;18.85;;
37517;SDS011;23366;52.498;13.446;2023-04-15T00:52:35;38.13;;;17.95;;
37517;SDS011;23366;52.498;13.446;2023-04-15T00:55:01;34.75;;;16.77;;
37517;SDS011;23366;52.498;13.446;2023-04-15T00:57:28;41.70;;;19.65;;
37517;SDS011;23366;52.498;13.446;2023-04-15T00:59:54;37.22;;;17.80;;
37517;SDS011;23366;52.498;13.446;2023-04-15T01:02:21;40.63;;;19.20;;
37517;SDS011;23366;52.498;13.446;2023-04-15T01:04:47;39.15;;;19.05;;
37517;SDS011;23366;52.498;13.446;2023-04-15T01:07:13;37.90;;;18.27;;
37517;SDS011;23366;52.498;13.446;2023-04-15T01:09:38;40.33;;;18.75;;
37517;SDS011;23366;52.498;13.446;2023-04-15T01:12:04;41.42;;;19.50;;
37517;SDS011;23366;52.498;13.446;2023-04-15T01:14:31;39.95;;;17.77;;
37517;SDS011;23366;52.498;13.446;2023-04-15T01:16:57;41.60;;;18.23;;
37517;SDS011;23366;52.498;13.446;2023-04-15T01:19:23;42.92;;;20.02;;
37517;SDS011;23366;52.498;13.446;2023-04-15T01:21:48;40.00;;;19.08;;
37517;SDS011;23366;52.498;13.446;2023-04-15T01:24:14;37.33;;;19.23;;
37517;SDS011;23366;52.498;13.446;2023-04-15T01:26:42;44.83;;;19.17;;
37517;SDS011;23366;52.498;13.446;2023-04-15T01:29:08;40.17;;;20.10;;
37517;SDS011;23366;52.498;13.446;2023-04-15T01:31:33;53.40;;;22.85;;
37517;SDS011;23366;52.498;13.446;2023-04-15T01:33:59;49.80;;;20.05;;
37517;SDS011;23366;52.498;13.446;2023-04-15T01:36:26;56.83;;;24.08;;
37517;SDS011;23366;52.498;13.446;2023-04-15T01:38:52;44.42;;;20.80;;
37517;SDS011;23366;52.498;13.446;2023-04-15T01:41:27;46.75;;;20.65;;
37517;SDS011;23366;52.498;13.446;2023-04-15T01:43:53;45.45;;;21.58;;
37517;SDS011;23366;52.498;13.446;2023-04-15T01:46:19;49.90;;;20.27;;
37517;SDS011;23366;52.498;13.446;2023-04-15T01:48:45;51.45;;;22.83;;
37517;SDS011;23366;52.498;13.446;2023-04-15T01:51:11;40.67;;;20.52;;
37517;SDS011;23366;52.498;13.446;2023-04-15T01:53:36;47.08;;;21.33;;
37517;SDS011;23366;52.498;13.446;2023-04-15T01:56:02;40.83;;;19.85;;
37517;SDS011;23366;52.498;13.446;2023-04-15T01:58:28;44.35;;;20.08;;
37517;SDS011;23366;52.498;13.446;2023-04-15T02:00:54;50.08;;;20.02;;
37517;SDS011;23366;52.498;13.446;2023-04-15T02:03:20;43.25;;;22.88;;
37517;SDS011;23366;52.498;13.446;2023-04-15T02:05:45;49.67;;;19.35;;
37517;SDS011;23366;52.498;13.446;2023-04-15T02:08:11;44.10;;;20.73;;
37517;SDS011;23366;52.498;13.446;2023-04-15T02:10:37;43.72;;;21.05;;
37517;SDS011;23366;52.498;13.446;2023-04-15T02:13:02;41.72;;;18.45;;
37517;SDS011;23366;52.498;13.446;2023-04-15T02:15:28;42.08;;;21.00;;
37517;SDS011;23366;52.498;13.446;2023-04-15T02:17:54;42.78;;;19.95;;
37517;SDS011;23366;52.498;13.446;2023-04-15T02:20:20;46.63;;;18.35;;
37517;SDS011;23366;52.498;13.446;2023-04-15T02:22:46;52.55;;;21.75;;
37517;SDS011;23366;52.498;13.446;2023-04-15T02:25:12;46.40;;;21.30;;
37517;SDS011;23366;52.498;13.446;2023-04-15T02:27:38;50.28;;;21.67;;
37517;SDS011;23366;52.498;13.446;2023-04-15T02:30:04;51.50;;;20.75;;
37517;SDS011;23366;52.498;13.446;2023-04-15T02:32:31;61.28;;;21.58;;
37517;SDS011;23366;52.498;13.446;2023-04-15T02:35:01;52.70;;;19.73;;
37517;SDS011;23366;52.498;13.446;2023-04-15T02:37:29;44.78;;;19.30;;
37517;SDS011;23366;52.498;13.446;2023-04-15T02:39:56;48.30;;;21.45;;
37517;SDS011;23366;52.498;13.446;2023-04-15T02:42:21;46.05;;;20.35;;
37517;SDS011;23366;52.498;13.446;2023-04-15T02:44:47;45.17;;;19.83;;
37517;SDS011;23366;52.498;13.446;2023-04-15T02:47:12;42.40;;;19.08;;
37517;SDS011;23366;52.498;13.446;2023-04-15T02:49:38;53.08;;;20.73;;
37517;SDS011;23366;52.498;13.446;2023-04-15T02:52:04;49.90;;;21.98;;
37517;SDS011;23366;52.498;13.446;2023-04-15T02:54:30;43.25;;;19.38;;
37517;SDS011;23366;52.498;13.446;2023-04-15T02:56:58;47.58;;;19.98;;
37517;SDS011;23366;52.498;13.446;2023-04-15T02:59:23;52.45;;;20.92;;
37517;SDS011;23366;52.498;13.446;2023-04-15T03:01:49;41.15;;;19.60;;
37517;SDS011;23366;52.498;13.446;2023-04-15T03:04:15;58.47;;;21.50;;
37517;SDS011;23366;52.498;13.446;2023-04-15T03:06:41;56.00;;;22.08;;
37517;SDS011;23366;52.498;13.446;2023-04-15T03:09:06;41.42;;;19.02;;
37517;SDS011;23366;52.498;13.446;2023-04-15T03:11:32;45.05;;;20.52;;
37517;SDS011;23366;52.498;13.446;2023-04-15T03:13:57;50.20;;;20.02;;
37517;SDS011;23366;52.498;13.446;2023-04-15T03:16:23;43.33;;;20.45;;
37517;SDS011;23366;52.498;13.446;2023-04-15T03:18:49;44.97;;;18.13;;
37517;SDS011;23366;52.498;13.446;2023-04-15T03:21:15;46.63;;;20.05;;
37517;SDS011;23366;52.498;13.446;2023-04-15T03:23:41;41.15;;;19.90;;
37517;SDS011;23366;52.498;13.446;2023-04-15T03:26:06;41.50;;;18.52;;
37517;SDS011;23366;52.498;13.446;2023-04-15T03:28:32;38.70;;;17.80;;
37517;SDS011;23366;52.498;13.446;2023-04-15T03:30:58;42.67;;;18.35;;
37517;SDS011;23366;52.498;13.446;2023-04-15T03:33:23;49.63;;;21.65;;
37517;SDS011;23366;52.498;13.446;2023-04-15T03:35:49;38.63;;;17.58;;
37517;SDS011;23366;52.498;13.446;2023-04-15T03:38:16;42.75;;;19.05;;
37517;SDS011;23366;52.498;13.446;2023-04-15T03:40:41;42.20;;;18.55;;
37517;SDS011;23366;52.498;13.446;2023-04-15T03:43:07;40.25;;;19.88;;
37517;SDS011;23366;52.498;13.446;2023-04-15T03:45:32;43.35;;;19.90;;
37517;SDS011;23366;52.498;13.446;2023-04-15T03:47:58;48.20;;;20.80;;
37517;SDS011;23366;52.498;13.446;2023-04-15T03:50:24;39.60;;;19.20;;
37517;SDS011;23366;52.498;13.446;2023-04-15T03:52:52;37.33;;;18.10;;
37517;SDS011;23366;52.498;13.446;2023-04-15T03:55:17;42.67;;;19.27;;
37517;SDS011;23366;52.498;13.446;2023-04-15T03:57:44;44.25;;;17.92;;
37517;SDS011;23366;52.498;13.446;2023-04-15T04:00:09;43.08;;;18.15;;
37517;SDS011;23366;52.498;13.446;2023-04-15T04:02:35;36.58;;;18.52;;
37517;SDS011;23366;52.498;13.446;2023-04-15T04:05:01;41.80;;;19.10;;
37517;SDS011;23366;52.498;13.446;2023-04-15T04:07:26;37.83;;;18.98;;
37517;SDS011;23366;52.498;13.446;2023-04-15T04:09:52;38.38;;;17.50;;
37517;SDS011;23366;52.498;13.446;2023-04-15T04:12:17;30.80;;;16.10;;
37517;SDS011;23366;52.498;13.446;2023-04-15T04:14:43;36.22;;;16.95;;
37517;SDS011;23366;52.498;13.446;2023-04-15T04:17:08;34.90;;;17.02;;
37517;SDS011;23366;52.498;13.446;2023-04-15T04:19:34;33.88;;;16.45;;
37517;SDS011;23366;52.498;13.446;2023-04-15T04:22:00;42.72;;;19.08;;
37517;SDS011;23366;52.498;13.446;2023-04-15T04:24:25;37.00;;;15.93;;
37517;SDS011;23366;52.498;13.446;2023-04-15T04:26:51;37.50;;;18.05;;
37517;SDS011;23366;52.498;13.446;2023-04-15T04:29:16;31.98;;;14.75;;
37517;SDS011;23366;52.498;13.446;2023-04-15T04:31:42;30.58;;;16.17;;
37517;SDS011;23366;52.498;13.446;2023-04-15T04:34:07;29.30;;;16.10;;
37517;SDS011;23366;52.498;13.446;2023-04-15T04:36:33;35.53;;;16.20;;
37517;SDS011;23366;52.498;13.446;2023-04-15T04:38:58;30.38;;;16.10;;
37517;SDS011;23366;52.498;13.446;2023-04-15T04:41:25;27.63;;;15.75;;
37517;SDS011;23366;52.498;13.446;2023-04-15T04:43:51;27.48;;;15.57;;
37517;SDS011;23366;52.498;13.446;2023-04-15T04:46:16;41.55;;;17.60;;
37517;SDS011;23366;52.498;13.446;2023-04-15T04:48:42;25.58;;;14.15;;
37517;SDS011;23366;52.498;13.446;2023-04-15T04:51:07;29.60;;;15.40;;
37517;SDS011;23366;52.498;13.446;2023-04-15T04:53:33;26.75;;;15.73;;
37517;SDS011;23366;52.498;13.446;2023-04-15T04:55:59;28.63;;;13.85;;
37517;SDS011;23366;52.498;13.446;2023-04-15T04:58:25;27.23;;;15.23;;
37517;SDS011;23366;52.498;13.446;2023-04-15T05:00:51;27.17;;;14.15;;
37517;SDS011;23366;52.498;13.446;2023-04-15T05:03:16;26.17;;;14.45;;
37517;SDS011;23366;52.498;13.446;2023-04-15T05:05:42;34.50;;;14.63;;
37517;SDS011;23366;52.498;13.446;2023-04-15T05:08:08;28.40;;;14.85;;
37517;SDS011;23366;52.498;13.446;2023-04-15T05:10:33;26.30;;;14.93;;
37517;SDS011;23366;52.498;13.446;2023-04-15T05:12:59;25.70;;;12.98;;
37517;SDS011;23366;52.498;13.446;2023-04-15T05:15:24;28.20;;;14.25;;
37517;SDS011;23366;52.498;13.446;2023-04-15T05:17:50;19.95;;;13.07;;
37517;SDS011;23366;52.498;13.446;2023-04-15T05:20:16;20.20;;;11.45;;
37517;SDS011;23366;52.498;13.446;2023-04-15T05:22:42;22.40;;;13.88;;
37517;SDS011;23366;52.498;13.446;2023-04-15T05:25:07;23.85;;;12.30;;
37517;SDS011;23366;52.498;13.446;2023-04-15T05:27:33;25.00;;;13.07;;
37517;SDS011;23366;52.498;13.446;2023-04-15T05:29:59;26.25;;;13.05;;
37517;SDS011;23366;52.498;13.446;2023-04-15T05:32:25;20.92;;;12.68;;
37517;SDS011;23366;52.498;13.446;2023-04-15T05:34:50;18.45;;;11.85;;
37517;SDS011;23366;52.498;13.446;2023-04-15T05:37:16;23.15;;;12.05;;
37517;SDS011;23366;52.498;13.446;2023-04-15T05:39:44;18.92;;;10.88;;
37517;SDS011;23366;52.498;13.446;2023-04-15T05:42:10;21.33;;;11.48;;
37517;SDS011;23366;52.498;13.446;2023-04-15T05:44:36;21.73;;;11.65;;
37517;SDS011;23366;52.498;13.446;2023-04-15T05:47:01;16.98;;;10.68;;
37517;SDS011;23366;52.498;13.446;2023-04-15T05:49:27;19.25;;;11.23;;
37517;SDS011;23366;52.498;13.446;2023-04-15T05:51:53;22.75;;;12.98;;
37517;SDS011;23366;52.498;13.446;2023-04-15T05:54:18;20.77;;;11.90;;
37517;SDS011;23366;52.498;13.446;2023-04-15T05:56:45;17.15;;;10.15;;
37517;SDS011;23366;52.498;13.446;2023-04-15T05:59:11;15.50;;;10.32;;
37517;SDS011;23366;52.498;13.446;2023-04-15T06:01:37;19.73;;;12.05;;
37517;SDS011;23366;52.498;13.446;2023-04-15T06:04:02;20.08;;;11.07;;
37517;SDS011;23366;52.498;13.446;2023-04-15T06:06:28;17.98;;;9.80;;
37517;SDS011;23366;52.498;13.446;2023-04-15T06:08:53;20.83;;;10.60;;
37517;SDS011;23366;52.498;13.446;2023-04-15T06:11:19;21.25;;;10.77;;
37517;SDS011;23366;52.498;13.446;2023-04-15T06:13:46;19.10;;;10.32;;
37517;SDS011;23366;52.498;13.446;2023-04-15T06:16:11;18.38;;;10.95;;
37517;SDS011;23366;52.498;13.446;2023-04-15T06:18:37;16.63;;;9.43;;
37517;SDS011;23366;52.498;13.446;2023-04-15T06:21:03;15.88;;;9.68;;
37517;SDS011;23366;52.498;13.446;2023-04-15T06:23:28;15.82;;;9.38;;
37517;SDS011;23366;52.498;13.446;2023-04-15T06:25:55;16.10;;;9.63;;
37517;SDS011;23366;52.498;13.446;2023-04-15T06:28:20;16.98;;;9.68;;
37517;SDS011;23366;52.498;13.446;2023-04-15T06:30:46;13.57;;;9.55;;
37517;SDS011;23366;52.498;13.446;2023-04-15T06:33:11;14.65;;;8.57;;
37517;SDS011;23366;52.498;13.446;2023-04-15T06:35:37;18.15;;;8.63;;
37517;SDS011;23366;52.498;13.446;2023-04-15T06:38:03;14.48;;;7.65;;
37517;SDS011;23366;52.498;13.446;2023-04-15T06:40:28;13.68;;;8.88;;
37517;SDS011;23366;52.498;13.446;2023-04-15T06:42:54;14.57;;;9.52;;
37517;SDS011;23366;52.498;13.446;2023-04-15T06:45:20;13.00;;;7.97;;
37517;SDS011;23366;52.498;13.446;2023-04-15T06:47:45;11.50;;;8.30;;
37517;SDS011;23366;52.498;13.446;2023-04-15T06:50:11;12.63;;;7.63;;
37517;SDS011;23366;52.498;13.446;2023-04-15T06:52:37;13.45;;;8.43;;
37517;SDS011;23366;52.498;13.446;2023-04-15T06:55:03;15.02;;;8.23;;
37517;SDS011;23366;52.498;13.446;2023-04-15T06:57:29;10.55;;;6.97;;
37517;SDS011;23366;52.498;13.446;2023-04-15T06:59:54;11.32;;;7.57;;
37517;SDS011;23366;52.498;13.446;2023-04-15T07:02:20;10.20;;;7.65;;
37517;SDS011;23366;52.498;13.446;2023-04-15T07:04:45;8.63;;;6.53;;
37517;SDS011;23366;52.498;13.446;2023-04-15T07:07:11;10.80;;;7.45;;
37517;SDS011;23366;52.498;13.446;2023-04-15T07:09:37;9.32;;;6.70;;
37517;SDS011;23366;52.498;13.446;2023-04-15T07:12:02;9.23;;;6.72;;
37517;SDS011;23366;52.498;13.446;2023-04-15T07:14:28;12.05;;;6.90;;
37517;SDS011;23366;52.498;13.446;2023-04-15T07:16:54;17.23;;;6.35;;
37517;SDS011;23366;52.498;13.446;2023-04-15T07:19:19;9.18;;;6.28;;
37517;SDS011;23366;52.498;13.446;2023-04-15T07:21:45;9.65;;;6.80;;
37517;SDS011;23366;52.498;13.446;2023-04-15T07:24:11;8.90;;;6.10;;
37517;SDS011;23366;52.498;13.446;2023-04-15T07:26:40;12.65;;;7.30;;
37517;SDS011;23366;52.498;13.446;2023-04-15T07:29:05;11.27;;;6.63;;
37517;SDS011;23366;52.498;13.446;2023-04-15T07:31:31;10.70;;;6.30;;
37517;SDS011;23366;52.498;13.446;2023-04-15T07:33:56;11.38;;;6.97;;
37517;SDS011;23366;52.498;13.446;2023-04-15T07:36:22;12.40;;;6.53;;
37517;SDS011;23366;52.498;13.446;2023-04-15T07:38:48;9.73;;;6.32;;
37517;SDS011;23366;52.498;13.446;2023-04-15T07:41:13;13.20;;;7.72;;
37517;SDS011;23366;52.498;13.446;2023-04-15T07:43:39;12.25;;;8.32;;
37517;SDS011;23366;52.498;13.446;2023-04-15T07:46:05;14.40;;;7.63;;
37517;SDS011;23366;52.498;13.446;2023-04-15T07:48:30;12.60;;;7.78;;
37517;SDS011;23366;52.498;13.446;2023-04-15T07:50:56;15.10;;;7.32;;
37517;SDS011;23366;52.498;13.446;2023-04-15T07:53:21;10.75;;;6.40;;
37517;SDS011;23366;52.498;13.446;2023-04-15T07:55:47;10.73;;;7.68;;
37517;SDS011;23366;52.498;13.446;2023-04-15T07:58:12;11.60;;;7.82;;
37517;SDS011;23366;52.498;13.446;2023-04-15T08:00:38;12.25;;;7.50;;
37517;SDS011;23366;52.498;13.446;2023-04-15T08:03:04;10.00;;;7.13;;
37517;SDS011;23366;52.498;13.446;2023-04-15T08:05:29;13.98;;;8.10;;
37517;SDS011;23366;52.498;13.446;2023-04-15T08:07:55;11.88;;;7.63;;
37517;SDS011;23366;52.498;13.446;2023-04-15T08:10:21;13.45;;;7.55;;
37517;SDS011;23366;52.498;13.446;2023-04-15T08:12:47;16.67;;;9.82;;
37517;SDS011;23366;52.498;13.446;2023-04-15T08:15:13;12.27;;;8.43;;
37517;SDS011;23366;52.498;13.446;2023-04-15T08:17:39;14.43;;;7.82;;
37517;SDS011;23366;52.498;13.446;2023-04-15T08:20:05;10.65;;;7.07;;
37517;SDS011;23366;52.498;13.446;2023-04-15T08:22:31;14.45;;;8.27;;
37517;SDS011;23366;52.498;13.446;2023-04-15T08:24:56;14.80;;;8.02;;
37517;SDS011;23366;52.498;13.446;2023-04-15T08:27:22;18.98;;;8.45;;
37517;SDS011;23366;52.498;13.446;2023-04-15T08:29:47;11.30;;;7.90;;
37517;SDS011;23366;52.498;13.446;2023-04-15T08:32:13;14.68;;;8.77;;
37517;SDS011;23366;52.498;13.446;2023-04-15T08:34:39;13.43;;;8.20;;
37517;SDS011;23366;52.498;13.446;2023-04-15T08:37:04;15.02;;;8.20;;
37517;SDS011;23366;52.498;13.446;2023-04-15T08:39:30;14.45;;;7.88;;
37517;SDS011;23366;52.498;13.446;2023-04-15T08:42:00;12.73;;;8.05;;
37517;SDS011;23366;52.498;13.446;2023-04-15T08:44:32;11.43;;;7.93;;
37517;SDS011;23366;52.498;13.446;2023-04-15T08:47:01;14.45;;;7.78;;
37517;SDS011;23366;52.498;13.446;2023-04-15T08:51:59;11.30;;;7.80;;
37517;SDS011;23366;52.498;13.446;2023-04-15T08:54:25;16.55;;;10.52;;
37517;SDS011;23366;52.498;13.446;2023-04-15T08:56:52;12.18;;;9.23;;
37517;SDS011;23366;52.498;13.446;2023-04-15T08:59:18;13.05;;;8.55;;
37517;SDS011;23366;52.498;13.446;2023-04-15T09:01:46;16.08;;;9.30;;
37517;SDS011;23366;52.498;13.446;2023-04-15T09:04:12;13.35;;;9.65;;
37517;SDS011;23366;52.498;13.446;2023-04-15T09:06:38;17.15;;;9.23;;
37517;SDS011;23366;52.498;13.446;2023-04-15T09:09:04;13.57;;;9.05;;
37517;SDS011;23366;52.498;13.446;2023-04-15T09:11:29;12.55;;;8.63;;
37517;SDS011;23366;52.498;13.446;2023-04-15T09:13:55;14.18;;;10.15;;
37517;SDS011;23366;52.498;13.446;2023-04-15T09:16:20;18.40;;;8.77;;
37517;SDS011;23366;52.498;13.446;2023-04-15T09:18:47;14.95;;;9.40;;
37517;SDS011;23366;52.498;13.446;2023-04-15T09:21:13;12.93;;;8.30;;
37517;SDS011;23366;52.498;13.446;2023-04-15T09:23:41;14.30;;;9.23;;
37517;SDS011;23366;52.498;13.446;2023-04-15T09:26:37;16.33;;;9.00;;
37517;SDS011;23366;52.498;13.446;2023-04-15T09:29:04;13.63;;;9.98;;
37517;SDS011;23366;52.498;13.446;2023-04-15T09:31:31;16.08;;;9.68;;
37517;SDS011;23366;52.498;13.446;2023-04-15T09:33:57;16.45;;;8.63;;
37517;SDS011;23366;52.498;13.446;2023-04-15T09:36:22;14.15;;;10.05;;
37517;SDS011;23366;52.498;13.446;2023-04-15T09:38:55;16.83;;;9.68;;
37517;SDS011;23366;52.498;13.446;2023-04-15T09:41:21;12.13;;;8.88;;
37517;SDS011;23366;52.498;13.446;2023-04-15T09:43:48;19.30;;;9.32;;
37517;SDS011;23366;52.498;13.446;2023-04-15T09:46:13;11.90;;;8.18;;
37517;SDS011;23366;52.498;13.446;2023-04-15T09:48:39;12.43;;;8.68;;
37517;SDS011;23366;52.498;13.446;2023-04-15T09:51:04;14.45;;;9.88;;
37517;SDS011;23366;52.498;13.446;2023-04-15T09:53:32;15.35;;;8.35;;
37517;SDS011;23366;52.498;13.446;2023-04-15T09:55:59;13.85;;;9.02;;
37517;SDS011;23366;52.498;13.446;2023-04-15T09:58:27;14.20;;;9.50;;
37517;SDS011;23366;52.498;13.446;2023-04-15T10:00:54;14.38;;;9.32;;
37517;SDS011;23366;52.498;13.446;2023-04-15T10:03:24;11.57;;;8.13;;
37517;SDS011;23366;52.498;13.446;2023-04-15T10:05:52;15.40;;;10.10;;
37517;SDS011;23366;52.498;13.446;2023-04-15T10:08:20;12.43;;;8.88;;
37517;SDS011;23366;52.498;13.446;2023-04-15T10:10:49;14.38;;;9.20;;
37517;SDS011;23366;52.498;13.446;2023-04-15T10:13:26;15.95;;;10.05;;
37517;SDS011;23366;52.498;13.446;2023-04-15T10:15:57;15.35;;;10.15;;
37517;SDS011;23366;52.498;13.446;2023-04-15T10:18:27;16.60;;;9.55;;
37517;SDS011;23366;52.498;13.446;2023-04-15T10:20:53;15.50;;;9.55;;
37517;SDS011;23366;52.498;13.446;2023-04-15T10:23:19;16.17;;;9.85;;
37517;SDS011;23366;52.498;13.446;2023-04-15T10:25:46;18.33;;;9.82;;
37517;SDS011;23366;52.498;13.446;2023-04-15T10:28:13;14.75;;;9.60;;
37517;SDS011;23366;52.498;13.446;2023-04-15T10:30:40;14.52;;;10.07;;
37517;SDS011;23366;52.498;13.446;2023-04-15T10:33:07;12.93;;;8.65;;
37517;SDS011;23366;52.498;13.446;2023-04-15T10:35:33;12.00;;;8.48;;
37517;SDS011;23366;52.498;13.446;2023-04-15T10:38:00;13.82;;;10.00;;
37517;SDS011;23366;52.498;13.446;2023-04-15T10:40:29;13.15;;;8.38;;
37517;SDS011;23366;52.498;13.446;2023-04-15T10:43:00;13.85;;;9.27;;
37517;SDS011;23366;52.498;13.446;2023-04-15T10:45:27;13.65;;;9.25;;
37517;SDS011;23366;52.498;13.446;2023-04-15T10:47:57;12.95;;;9.48;;
37517;SDS011;23366;52.498;13.446;2023-04-15T10:50:25;13.13;;;8.85;;
37517;SDS011;23366;52.498;13.446;2023-04-15T10:52:52;12.02;;;9.05;;
37517;SDS011;23366;52.498;13.446;2023-04-15T10:55:19;12.23;;;8.90;;
37517;SDS011;23366;52.498;13.446;2023-04-15T10:57:58;16.30;;;9.40;;
37517;SDS011;23366;52.498;13.446;2023-04-15T11:00:27;14.40;;;9.57;;
37517;SDS011;23366;52.498;13.446;2023-04-15T11:02:57;12.98;;;8.05;;
37517;SDS011;23366;52.498;13.446;2023-04-15T11:08:03;13.90;;;8.82;;
37517;SDS011;23366;52.498;13.446;2023-04-15T11:12:58;16.23;;;9.93;;
37517;SDS011;23366;52.498;13.446;2023-04-15T11:15:29;15.73;;;9.18;;
37517;SDS011;23366;52.498;13.446;2023-04-15T11:18:09;12.07;;;8.43;;
37517;SDS011;23366;52.498;13.446;2023-04-15T11:20:37;14.55;;;9.45;;
37517;SDS011;23366;52.498;13.446;2023-04-15T11:23:04;12.23;;;9.25;;
37517;SDS011;23366;52.498;13.446;2023-04-15T11:25:31;14.07;;;8.90;;
37517;SDS011;23366;52.498;13.446;2023-04-15T11:27:59;14.95;;;9.73;;
37517;SDS011;23366;52.498;13.446;2023-04-15T11:30:29;13.45;;;9.25;;
37517;SDS011;23366;52.498;13.446;2023-04-15T11:32:58;16.23;;;8.35;;
37517;SDS011;23366;52.498;13.446;2023-04-15T11:35:27;14.88;;;9.80;;
37517;SDS011;23366;52.498;13.446;2023-04-15T11:37:53;12.57;;;8.57;;
37517;SDS011;23366;52.498;13.446;2023-04-15T11:40:28;13.95;;;8.98;;
37517;SDS011;23366;52.498;13.446;2023-04-15T11:43:07;11.77;;;8.38;;
37517;SDS011;23366;52.498;13.446;2023-04-15T11:45:35;12.13;;;8.35;;
37517;SDS011;23366;52.498;13.446;2023-04-15T11:50:35;13.68;;;8.50;;
37517;SDS011;23366;52.498;13.446;2023-04-15T11:53:02;10.70;;;7.40;;
37517;SDS011;23366;52.498;13.446;2023-04-15T11:55:29;12.43;;;8.10;;
37517;SDS011;23366;52.498;13.446;2023-04-15T11:58:08;12.32;;;7.25;;
37517;SDS011;23366;52.498;13.446;2023-04-15T12:00:34;13.60;;;9.23;;
37517;SDS011;23366;52.498;13.446;2023-04-15T12:03:11;13.55;;;8.55;;
37517;SDS011;23366;52.498;13.446;2023-04-15T12:06:10;13.55;;;8.15;;
37517;SDS011;23366;52.498;13.446;2023-04-15T12:16:53;13.63;;;7.53;;
37517;SDS011;23366;52.498;13.446;2023-04-15T12:19:23;12.68;;;8.52;;
37517;SDS011;23366;52.498;13.446;2023-04-15T12:22:00;12.50;;;8.25;;
37517;SDS011;23366;52.498;13.446;2023-04-15T12:24:29;14.35;;;8.65;;
37517;SDS011;23366;52.498;13.446;2023-04-15T12:26:56;11.40;;;7.75;;
37517;SDS011;23366;52.498;13.446;2023-04-15T12:29:27;12.18;;;8.43;;
37517;SDS011;23366;52.498;13.446;2023-04-15T12:31:54;12.55;;;8.00;;
37517;SDS011;23366;52.498;13.446;2023-04-15T12:34:27;10.73;;;7.05;;
37517;SDS011;23366;52.498;13.446;2023-04-15T12:36:55;16.50;;;10.02;;
37517;SDS011;23366;52.498;13.446;2023-04-15T12:39:25;10.52;;;6.88;;
37517;SDS011;23366;52.498;13.446;2023-04-15T12:41:52;12.30;;;8.43;;
37517;SDS011;23366;52.498;13.446;2023-04-15T12:44:19;10.93;;;7.40;;
37517;SDS011;23366;52.498;13.446;2023-04-15T12:46:46;12.90;;;8.27;;
37517;SDS011;23366;52.498;13.446;2023-04-15T12:49:11;13.68;;;8.35;;
37517;SDS011;23366;52.498;13.446;2023-04-15T12:51:38;11.05;;;7.25;;
37517;SDS011;23366;52.498;13.446;2023-04-15T12:54:04;9.88;;;6.78;;
37517;SDS011;23366;52.498;13.446;2023-04-15T12:56:30;10.40;;;6.45;;
37517;SDS011;23366;52.498;13.446;2023-04-15T12:58:55;13.25;;;7.13;;
37517;SDS011;23366;52.498;13.446;2023-04-15T13:01:21;10.30;;;6.90;;
37517;SDS011;23366;52.498;13.446;2023-04-15T13:03:47;12.30;;;6.50;;
37517;SDS011;23366;52.498;13.446;2023-04-15T13:06:14;8.45;;;6.25;;
37517;SDS011;23366;52.498;13.446;2023-04-15T13:08:39;11.48;;;6.68;;
37517;SDS011;23366;52.498;13.446;2023-04-15T13:11:05;9.82;;;7.15;;
37517;SDS011;23366;52.498;13.446;2023-04-15T13:13:31;7.88;;;6.30;;
37517;SDS011;23366;52.498;13.446;2023-04-15T13:15:57;11.18;;;6.32;;
37517;SDS011;23366;52.498;13.446;2023-04-15T13:18:23;9.32;;;6.55;;
37517;SDS011;23366;52.498;13.446;2023-04-15T13:20:49;11.38;;;7.82;;
37517;SDS011;23366;52.498;13.446;2023-04-15T13:23:15;8.88;;;5.97;;
37517;SDS011;23366;52.498;13.446;2023-04-15T13:25:41;8.95;;;6.53;;
37517;SDS011;23366;52.498;13.446;2023-04-15T13:28:07;10.80;;;6.65;;
37517;SDS011;23366;52.498;13.446;2023-04-15T13:30:36;9.80;;;6.28;;
37517;SDS011;23366;52.498;13.446;2023-04-15T13:33:02;9.25;;;6.45;;
37517;SDS011;23366;52.498;13.446;2023-04-15T13:35:27;8.77;;;6.47;;
37517;SDS011;23366;52.498;13.446;2023-04-15T13:37:53;10.57;;;6.25;;
37517;SDS011;23366;52.498;13.446;2023-04-15T13:40:19;7.88;;;5.18;;
37517;SDS011;23366;52.498;13.446;2023-04-15T13:42:45;15.95;;;6.10;;
37517;SDS011;23366;52.498;13.446;2023-04-15T13:45:11;6.20;;;4.28;;
37517;SDS011;23366;52.498;13.446;2023-04-15T13:47:36;8.18;;;5.38;;
37517;SDS011;23366;52.498;13.446;2023-04-15T13:50:02;7.47;;;5.28;;
37517;SDS011;23366;52.498;13.446;2023-04-15T13:52:29;7.22;;;4.75;;
37517;SDS011;23366;52.498;13.446;2023-04-15T13:54:55;6.10;;;4.60;;
37517;SDS011;23366;52.498;13.446;2023-04-15T13:57:20;7.03;;;5.40;;
37517;SDS011;23366;52.498;13.446;2023-04-15T13:59:46;13.52;;;5.75;;
37517;SDS011;23366;52.498;13.446;2023-04-15T14:02:11;10.00;;;6.07;;
37517;SDS011;23366;52.498;13.446;2023-04-15T14:04:37;9.27;;;5.15;;
37517;SDS011;23366;52.498;13.446;2023-04-15T14:07:03;7.60;;;5.60;;
37517;SDS011;23366;52.498;13.446;2023-04-15T14:09:28;6.25;;;5.28;;
37517;SDS011;23366;52.498;13.446;2023-04-15T14:11:54;7.80;;;5.82;;
37517;SDS011;23366;52.498;13.446;2023-04-15T14:14:20;6.60;;;4.63;;
37517;SDS011;23366;52.498;13.446;2023-04-15T14:16:46;6.85;;;5.55;;
37517;SDS011;23366;52.498;13.446;2023-04-15T14:19:12;7.78;;;5.45;;
37517;SDS011;23366;52.498;13.446;2023-04-15T14:21:38;9.43;;;4.97;;
37517;SDS011;23366;52.498;13.446;2023-04-15T14:24:04;7.93;;;5.78;;
37517;SDS011;23366;52.498;13.446;2023-04-15T14:26:29;8.65;;;5.65;;
37517;SDS011;23366;52.498;13.446;2023-04-15T14:28:55;7.55;;;5.22;;
37517;SDS011;23366;52.498;13.446;2023-04-15T14:31:20;8.80;;;6.28;;